Weather at Giddings-Lee County Airport

Public forecast

Using degrees Fahrenheit for public forecast. Weather courtesy of forecast.io.

Current aviation weather report (METAR) for Giddings-Lee County Airport

Retrieved 2020/09/20 19:35 UTC (9 minutes ago):

KGYB 201935Z AUTO 02006G16KT 10SM CLR 30/18 A3002 RMK AO2 T02950178

Closest aviation forecast (TAF) to Giddings-Lee County Airport

Closest forecast is Austin Bergstrom International Airport, 35.8 nm (66.4 km) W. Retrieved 2020/09/20 18:34 UTC (1 hour ago):

TAF KAUS 201732Z 2018/2124 02012G22KT P6SM SKC FM210000 03011KT P6SM -SHRA BKN060 FM210300 03011KT P6SM -SHRA OVC025 FM210500 03011KT 6SM -SHRA OVC018 FM211200 02013G23KT 5SM SHRA OVC009 FM211500 01016G26KT 3SM SHRA OVC006